createdAt,value
2019-03-12T00:00:58.013Z,99.90
2019-03-12T00:03:28.449Z,99.90
2019-03-12T00:05:59.614Z,99.90
2019-03-12T00:08:30.335Z,99.90
2019-03-12T00:11:01.225Z,99.90
2019-03-12T00:13:32.195Z,99.90
2019-03-12T00:16:03.015Z,99.90
2019-03-12T00:18:33.472Z,99.90
2019-03-12T00:21:04.070Z,99.90
2019-03-12T00:23:36.173Z,99.90
2019-03-12T00:26:07.175Z,99.90
2019-03-12T00:28:38.080Z,99.90
2019-03-12T00:31:08.855Z,99.90
2019-03-12T00:33:39.477Z,99.90
2019-03-12T00:36:10.063Z,99.90
2019-03-12T00:38:40.782Z,99.90
2019-03-12T00:41:11.233Z,99.90
2019-03-12T00:43:42.433Z,99.90
2019-03-12T00:46:13.020Z,99.90
2019-03-12T00:48:43.663Z,99.90
2019-03-12T00:51:14.126Z,99.90
2019-03-12T00:53:45.423Z,99.90
2019-03-12T00:56:16.107Z,99.90
2019-03-12T00:58:46.419Z,99.90
2019-03-12T01:01:17.471Z,99.90
2019-03-12T01:03:50.807Z,99.90
2019-03-12T01:06:21.263Z,99.90
2019-03-12T01:08:53.453Z,99.90
2019-03-12T01:11:24.514Z,99.90
2019-03-12T01:13:57.774Z,99.90
2019-03-12T01:16:28.300Z,99.90
2019-03-12T01:18:58.820Z,99.90
2019-03-12T01:21:29.318Z,99.90
2019-03-12T01:24:03.006Z,99.90
2019-03-12T01:26:33.939Z,99.90
2019-03-12T01:29:04.559Z,99.90
2019-03-12T01:31:35.249Z,99.90
2019-03-12T01:34:06.146Z,99.90
2019-03-12T01:36:36.946Z,99.90
2019-03-12T01:39:09.551Z,99.90
2019-03-12T01:41:40.671Z,99.90
2019-03-12T01:44:12.032Z,99.90
2019-03-12T01:46:43.010Z,99.90
2019-03-12T01:49:14.051Z,99.90
2019-03-12T01:51:45.191Z,99.90
2019-03-12T01:54:16.234Z,99.90
2019-03-12T01:56:46.888Z,99.90
2019-03-12T01:59:17.912Z,99.90
2019-03-12T02:01:50.075Z,99.90
2019-03-12T02:04:20.720Z,99.90
2019-03-12T02:06:51.112Z,99.90
2019-03-12T02:09:22.400Z,99.90
2019-03-12T02:11:53.057Z,99.90
2019-03-12T02:14:28.013Z,99.90
2019-03-12T02:16:58.900Z,99.90
2019-03-12T02:19:29.331Z,99.90
2019-03-12T02:21:59.888Z,99.90
2019-03-12T02:24:30.535Z,99.90
2019-03-12T02:27:01.493Z,99.90
2019-03-12T02:29:31.971Z,99.90
2019-03-12T02:32:02.400Z,99.90
2019-03-12T02:34:32.776Z,99.90
2019-03-12T02:37:03.744Z,99.90
2019-03-12T02:39:34.620Z,99.90
2019-03-12T02:42:05.177Z,99.90
2019-03-12T02:44:35.971Z,99.90
2019-03-12T02:47:07.605Z,99.90
2019-03-12T02:49:38.394Z,99.90
2019-03-12T02:52:09.362Z,99.90
2019-03-12T02:54:39.823Z,99.90
2019-03-12T02:57:10.983Z,99.90
2019-03-12T02:59:41.875Z,99.90
2019-03-12T03:02:12.460Z,99.90
2019-03-12T03:04:43.012Z,99.90
2019-03-12T03:07:19.792Z,99.90
2019-03-12T03:09:50.948Z,99.90
2019-03-12T03:12:21.865Z,99.90
2019-03-12T03:14:52.937Z,99.90
2019-03-12T03:17:25.149Z,99.90
2019-03-12T03:19:57.186Z,99.90
2019-03-12T03:22:28.446Z,99.90
2019-03-12T03:24:59.029Z,99.90
2019-03-12T03:27:30.459Z,99.90
2019-03-12T03:30:03.014Z,99.90
2019-03-12T03:32:33.566Z,99.90
2019-03-12T03:35:04.948Z,99.90
2019-03-12T03:37:36.466Z,99.90
2019-03-12T03:40:07.209Z,99.90
2019-03-12T03:42:38.627Z,99.90
2019-03-12T03:45:10.101Z,99.90
2019-03-12T03:47:40.697Z,99.90
2019-03-12T03:50:11.555Z,99.90
2019-03-12T03:52:43.230Z,99.90
2019-03-12T03:55:15.938Z,99.90
2019-03-12T03:57:46.401Z,99.90
2019-03-12T04:00:19.653Z,99.90
2019-03-12T04:02:50.349Z,99.90
2019-03-12T04:05:20.782Z,99.90
2019-03-12T04:07:51.231Z,99.90
2019-03-12T04:10:21.861Z,99.90
2019-03-12T04:12:52.903Z,99.90
2019-03-12T04:15:23.784Z,99.90
2019-03-12T04:17:55.696Z,99.90
2019-03-12T04:20:26.705Z,99.90
2019-03-12T04:22:57.222Z,99.90
2019-03-12T04:25:28.768Z,99.90
2019-03-12T04:27:59.502Z,99.90
2019-03-12T04:30:30.210Z,99.90
2019-03-12T04:33:01.567Z,99.90
2019-03-12T04:35:32.052Z,99.90
2019-03-12T04:38:02.636Z,99.90
2019-03-12T04:40:33.381Z,99.90
2019-03-12T04:43:04.095Z,99.90
2019-03-12T04:45:34.646Z,99.90
2019-03-12T04:48:05.466Z,99.90
2019-03-12T04:50:36.003Z,99.90
2019-03-12T04:53:06.507Z,99.90
2019-03-12T04:55:38.471Z,99.90
2019-03-12T04:58:09.248Z,99.90
2019-03-12T05:00:39.816Z,99.90
2019-03-12T05:03:11.467Z,99.90
2019-03-12T05:05:42.939Z,99.90
2019-03-12T05:08:13.518Z,99.90
2019-03-12T05:10:44.041Z,99.90
2019-03-12T05:13:15.977Z,99.90
2019-03-12T05:15:46.415Z,99.90
2019-03-12T05:18:16.732Z,99.90
2019-03-12T05:20:47.423Z,99.90
2019-03-12T05:23:18.365Z,99.90
2019-03-12T05:25:49.258Z,99.90
2019-03-12T05:28:20.079Z,99.90
2019-03-12T05:30:50.931Z,99.90
2019-03-12T05:33:21.418Z,99.90
2019-03-12T05:35:52.141Z,99.90
2019-03-12T05:38:22.849Z,99.90
2019-03-12T05:40:53.661Z,99.90
2019-03-12T05:43:24.129Z,99.90
2019-03-12T05:45:54.763Z,99.90
2019-03-12T05:48:25.992Z,99.90
2019-03-12T05:50:56.970Z,99.90
2019-03-12T05:53:40.198Z,99.90
2019-03-12T05:56:11.043Z,99.90
2019-03-12T05:58:41.950Z,99.90
2019-03-12T06:01:13.675Z,99.90
2019-03-12T06:03:44.449Z,99.90
2019-03-12T06:06:15.377Z,99.90
2019-03-12T06:08:46.579Z,99.90
2019-03-12T06:11:17.573Z,99.90
2019-03-12T06:13:48.624Z,99.90
2019-03-12T06:16:19.416Z,99.90
2019-03-12T06:18:50.650Z,99.90
2019-03-12T06:21:23.245Z,99.90
2019-03-12T06:23:54.432Z,99.90
2019-03-12T06:26:26.071Z,99.90
2019-03-12T06:28:56.556Z,99.90
2019-03-12T06:31:34.897Z,99.90
2019-03-12T06:34:13.213Z,99.90
2019-03-12T06:37:01.734Z,99.90
2019-03-12T06:39:48.432Z,99.90
2019-03-12T06:42:50.195Z,99.90
2019-03-12T06:45:45.477Z,99.90
2019-03-12T06:48:36.930Z,99.90
2019-03-12T06:51:15.568Z,99.90
2019-03-12T06:54:11.593Z,99.90
2019-03-12T06:56:48.751Z,99.90
2019-03-12T06:59:41.089Z,99.90
2019-03-12T07:02:22.478Z,99.90
2019-03-12T07:05:21.882Z,99.90
2019-03-12T07:08:20.337Z,99.90
2019-03-12T07:11:18.852Z,99.90
2019-03-12T07:14:08.653Z,99.90
2019-03-12T07:17:02.311Z,99.90
2019-03-12T07:19:54.282Z,99.90
2019-03-12T07:22:44.122Z,99.90
2019-03-12T07:25:31.651Z,99.90
2019-03-12T07:28:16.922Z,99.90
2019-03-12T07:30:58.209Z,99.90
2019-03-12T07:33:53.937Z,99.90
2019-03-12T07:37:02.223Z,99.90
2019-03-12T07:39:50.573Z,99.90
2019-03-12T07:42:33.412Z,99.90
2019-03-12T07:45:25.899Z,99.90
2019-03-12T07:48:25.032Z,99.90
2019-03-12T07:51:13.395Z,99.90
2019-03-12T07:53:59.250Z,99.90
2019-03-12T07:56:43.966Z,99.90
2019-03-12T07:59:24.141Z,99.90
2019-03-12T08:02:28.978Z,99.90
2019-03-12T08:05:11.567Z,99.90
2019-03-12T08:08:07.168Z,99.90
2019-03-12T08:10:51.532Z,99.90
2019-03-12T08:13:34.313Z,99.90
2019-03-12T08:16:23.081Z,99.90
2019-03-12T08:19:18.944Z,99.90
2019-03-12T08:22:08.902Z,99.90
2019-03-12T08:25:08.197Z,99.90
2019-03-12T08:27:57.904Z,99.90
2019-03-12T08:30:47.494Z,99.90
2019-03-12T08:33:49.900Z,99.90
2019-03-12T08:36:28.234Z,99.90
2019-03-12T08:39:16.619Z,99.90
2019-03-12T08:42:05.960Z,99.90
2019-03-12T08:45:15.482Z,99.90
2019-03-12T08:47:59.354Z,99.90
2019-03-12T08:50:54.671Z,99.90
2019-03-12T08:53:43.498Z,99.90
2019-03-12T08:56:33.133Z,99.90
2019-03-12T08:59:22.938Z,99.90
2019-03-12T09:02:16.320Z,99.90
2019-03-12T09:05:08.633Z,99.90
2019-03-12T09:07:47.037Z,99.90
2019-03-12T09:10:40.021Z,99.90
2019-03-12T09:13:48.138Z,99.90
2019-03-12T09:16:52.624Z,99.90
2019-03-12T09:19:45.423Z,99.90
2019-03-12T09:22:43.398Z,99.90
2019-03-12T09:25:42.407Z,99.90
2019-03-12T09:28:38.292Z,99.90
2019-03-12T09:31:46.506Z,99.90
2019-03-12T09:34:43.450Z,99.90
2019-03-12T09:38:08.984Z,99.90
2019-03-12T09:44:49.047Z,95.70
2019-03-12T09:47:44.788Z,92.10
2019-03-12T09:50:29.109Z,91.20
2019-03-12T09:53:08.426Z,91.30
2019-03-12T09:56:02.553Z,96.30
2019-03-12T09:59:04.322Z,99.90
2019-03-12T10:01:52.241Z,99.90
2019-03-12T10:04:31.716Z,99.90
2019-03-12T10:07:25.749Z,99.90
2019-03-12T10:10:17.784Z,99.90
2019-03-12T10:13:13.430Z,99.90
2019-03-12T10:16:15.567Z,99.90
2019-03-12T10:19:06.679Z,99.90
2019-03-12T10:22:03.172Z,99.90
2019-03-12T10:24:49.026Z,99.90
2019-03-12T10:27:46.577Z,99.90
2019-03-12T10:30:44.881Z,99.90
2019-03-12T10:33:33.443Z,99.90
2019-03-12T10:36:09.926Z,99.90
2019-03-12T10:39:40.814Z,99.90
2019-03-12T10:42:33.268Z,99.90
2019-03-12T10:45:26.781Z,99.90
2019-03-12T10:47:57.993Z,99.90
2019-03-12T10:50:28.617Z,99.90
2019-03-12T10:52:59.606Z,99.90
2019-03-12T10:55:30.284Z,99.90
2019-03-12T10:58:00.631Z,99.90
2019-03-12T11:00:31.761Z,99.90
2019-03-12T11:03:02.858Z,99.90
2019-03-12T11:05:45.240Z,99.90
2019-03-12T11:08:07.074Z,99.90
2019-03-12T11:10:38.202Z,99.90
2019-03-12T11:13:08.932Z,99.90
2019-03-12T11:15:40.268Z,99.90
2019-03-12T11:18:11.292Z,99.90
2019-03-12T11:20:41.757Z,99.90
2019-03-12T11:23:12.622Z,99.90
2019-03-12T11:25:43.508Z,99.90
2019-03-12T11:28:13.988Z,99.90
2019-03-12T11:30:44.928Z,99.90
2019-03-12T11:33:15.442Z,99.90
2019-03-12T11:35:46.047Z,99.90
2019-03-12T11:38:16.652Z,99.90
2019-03-12T11:40:47.042Z,99.90
2019-03-12T11:43:18.047Z,99.90
2019-03-12T11:45:48.922Z,99.90
2019-03-12T11:48:19.733Z,99.90
2019-03-12T11:50:51.976Z,99.90
2019-03-12T11:53:22.926Z,99.90
2019-03-12T11:55:54.116Z,99.90
2019-03-12T11:58:25.531Z,99.90
2019-03-12T12:00:58.831Z,99.90
2019-03-12T12:03:32.872Z,99.90
2019-03-12T12:06:03.723Z,99.90
2019-03-12T12:08:34.505Z,99.90
2019-03-12T12:11:05.239Z,99.90
2019-03-12T12:13:38.918Z,99.90
2019-03-12T12:16:10.654Z,98.80
2019-03-12T12:18:41.146Z,94.90
2019-03-12T12:21:11.916Z,82.30
2019-03-12T12:23:42.775Z,71.70
2019-03-12T12:26:13.570Z,74.00
2019-03-12T12:28:44.590Z,66.60
2019-03-12T12:31:15.316Z,68.00
2019-03-12T12:33:45.988Z,67.50
2019-03-12T12:36:16.550Z,65.70
2019-03-12T12:38:47.476Z,65.60
2019-03-12T12:41:18.154Z,69.70
2019-03-12T12:43:48.963Z,73.00
2019-03-12T12:46:20.063Z,79.40
2019-03-12T12:48:53.334Z,90.70
2019-03-12T12:51:24.038Z,94.40
2019-03-12T12:53:54.529Z,99.90
2019-03-12T12:56:25.597Z,99.90
2019-03-12T12:58:56.078Z,99.90
2019-03-12T13:01:27.044Z,99.90
2019-03-12T13:03:57.538Z,99.90
2019-03-12T13:06:28.117Z,99.90
2019-03-12T13:09:01.662Z,99.90
2019-03-12T13:11:32.504Z,99.90
2019-03-12T13:14:03.420Z,99.90
2019-03-12T13:16:34.671Z,99.90
2019-03-12T13:19:05.518Z,99.90
2019-03-12T13:21:36.132Z,99.90
2019-03-12T13:24:08.154Z,99.90
2019-03-12T13:26:38.789Z,96.00
2019-03-12T13:29:09.322Z,91.50
2019-03-12T13:31:39.985Z,85.90
2019-03-12T13:34:10.710Z,93.30
2019-03-12T13:36:41.207Z,96.50
2019-03-12T13:39:12.167Z,85.30
2019-03-12T13:41:44.419Z,87.70
2019-03-12T13:44:15.237Z,91.00
2019-03-12T13:46:47.383Z,93.30
2019-03-12T13:49:19.214Z,96.60
2019-03-12T13:51:50.823Z,96.00
2019-03-12T13:54:21.878Z,94.60
2019-03-12T13:56:52.876Z,89.60
2019-03-12T13:59:23.599Z,85.30
2019-03-12T14:01:54.257Z,80.00
2019-03-12T14:04:24.921Z,80.90
2019-03-12T14:06:55.281Z,82.10
2019-03-12T14:09:25.797Z,87.20
2019-03-12T14:11:59.054Z,88.20
2019-03-12T14:14:28.722Z,87.20
2019-03-12T14:16:59.317Z,78.90
2019-03-12T14:19:32.937Z,80.80
2019-03-12T14:22:06.221Z,78.10
2019-03-12T14:24:36.701Z,78.20
2019-03-12T14:27:08.585Z,79.90
2019-03-12T14:29:39.085Z,79.30
2019-03-12T14:32:12.071Z,83.90
2019-03-12T14:34:42.378Z,84.50
2019-03-12T14:37:13.111Z,90.70
2019-03-12T14:39:43.897Z,91.10
2019-03-12T14:42:15.612Z,93.60
2019-03-12T14:44:46.607Z,95.40
2019-03-12T14:47:18.523Z,97.10
2019-03-12T14:49:50.773Z,99.90
2019-03-12T14:52:24.622Z,99.90
2019-03-12T14:54:55.184Z,99.90
2019-03-12T14:57:26.047Z,99.90
2019-03-12T14:59:56.625Z,99.90
2019-03-12T15:02:27.536Z,99.90
2019-03-12T15:04:58.706Z,99.90
2019-03-12T15:07:29.174Z,99.90
2019-03-12T15:10:00.376Z,99.90
2019-03-12T15:12:31.568Z,99.90
2019-03-12T15:15:02.309Z,99.90
2019-03-12T15:17:34.264Z,99.90
2019-03-12T15:20:05.905Z,99.90
2019-03-12T15:22:37.261Z,99.90
2019-03-12T15:25:09.553Z,99.50
2019-03-12T15:27:40.612Z,99.90
2019-03-12T15:30:15.171Z,99.90
2019-03-12T15:32:46.212Z,99.90
2019-03-12T15:35:17.183Z,99.90
2019-03-12T15:37:49.021Z,99.40
2019-03-12T15:40:19.955Z,96.70
2019-03-12T15:42:50.565Z,97.30
2019-03-12T15:45:21.401Z,92.10
2019-03-12T15:47:51.821Z,98.50
2019-03-12T15:50:22.534Z,99.10
2019-03-12T15:52:53.803Z,97.30
2019-03-12T15:55:24.577Z,99.90
2019-03-12T15:57:55.023Z,99.90
2019-03-12T16:00:25.928Z,99.90
2019-03-12T16:02:57.159Z,99.90
2019-03-12T16:05:32.047Z,99.30
2019-03-12T16:08:04.812Z,99.90
2019-03-12T16:10:35.835Z,99.90
2019-03-12T16:13:07.927Z,99.90
2019-03-12T16:15:39.278Z,99.90
2019-03-12T16:18:10.023Z,99.90
2019-03-12T16:20:45.273Z,99.90
2019-03-12T16:23:16.386Z,99.90
2019-03-12T16:25:50.871Z,99.90
2019-03-12T16:28:22.631Z,99.90
2019-03-12T16:30:58.795Z,99.90
2019-03-12T16:33:30.908Z,99.90
2019-03-12T16:36:01.573Z,99.90
2019-03-12T16:38:32.419Z,99.90
2019-03-12T16:41:06.657Z,99.90
2019-03-12T16:43:37.430Z,99.90
2019-03-12T16:46:09.391Z,99.90
2019-03-12T16:48:40.590Z,99.90
2019-03-12T16:51:11.284Z,99.90
2019-03-12T16:53:43.189Z,99.90
2019-03-12T16:56:14.861Z,99.90
2019-03-12T16:58:45.549Z,99.90
2019-03-12T17:01:17.944Z,99.90
2019-03-12T17:03:48.789Z,99.90
2019-03-12T17:06:19.992Z,99.90
2019-03-12T17:08:56.333Z,99.90
2019-03-12T17:11:28.176Z,99.90
2019-03-12T17:13:59.504Z,99.90
2019-03-12T17:16:30.993Z,99.90
2019-03-12T17:19:03.110Z,99.90
2019-03-12T17:21:34.006Z,99.90
2019-03-12T17:24:05.261Z,99.90
2019-03-12T17:26:36.234Z,99.90
2019-03-12T17:29:10.441Z,99.90
2019-03-12T17:31:41.898Z,99.90
2019-03-12T17:34:13.352Z,99.90
2019-03-12T17:36:44.380Z,99.90
2019-03-12T17:39:15.606Z,99.90
2019-03-12T17:41:46.697Z,99.90
2019-03-12T17:44:17.841Z,99.90
2019-03-12T17:46:50.342Z,99.90
2019-03-12T17:49:21.740Z,99.90
2019-03-12T17:51:52.871Z,99.90
2019-03-12T17:54:24.212Z,99.90
2019-03-12T17:56:56.000Z,99.90
2019-03-12T17:59:28.791Z,99.90
2019-03-12T18:01:59.692Z,99.90
2019-03-12T18:04:30.701Z,99.90
2019-03-12T18:07:01.755Z,99.90
2019-03-12T18:09:36.827Z,99.90
2019-03-12T18:12:08.111Z,99.90
2019-03-12T18:14:41.063Z,99.90
2019-03-12T18:17:12.146Z,99.90
2019-03-12T18:19:43.180Z,99.90
2019-03-12T18:22:14.189Z,99.90
2019-03-12T18:24:45.529Z,99.90
2019-03-12T18:27:16.593Z,99.90
2019-03-12T18:29:47.479Z,99.90
2019-03-12T18:32:19.668Z,99.90
2019-03-12T18:34:52.338Z,99.90
2019-03-12T18:37:23.976Z,99.90
2019-03-12T18:39:55.663Z,99.90
2019-03-12T18:42:26.959Z,99.90
2019-03-12T18:44:57.794Z,99.90
2019-03-12T18:47:33.265Z,99.90
2019-03-12T18:50:04.230Z,99.90
2019-03-12T18:52:35.460Z,99.90
2019-03-12T18:55:06.743Z,99.90
2019-03-12T18:57:41.585Z,99.90
2019-03-12T19:00:13.746Z,99.90
2019-03-12T19:02:45.360Z,99.90
2019-03-12T19:05:16.981Z,99.90
2019-03-12T19:07:48.068Z,99.90
2019-03-12T19:10:19.276Z,99.90
2019-03-12T19:12:50.870Z,99.90
2019-03-12T19:15:22.831Z,99.90
2019-03-12T19:17:54.281Z,99.90
2019-03-12T19:20:25.976Z,99.90
2019-03-12T19:22:59.031Z,99.90
2019-03-12T19:25:30.752Z,99.90
2019-03-12T19:28:02.710Z,99.90
2019-03-12T19:30:36.415Z,99.90
2019-03-12T19:33:14.033Z,99.90
2019-03-12T19:35:46.027Z,99.90
2019-03-12T19:38:20.246Z,99.90
2019-03-12T19:40:54.017Z,99.90
2019-03-12T19:43:25.313Z,99.90
2019-03-12T19:45:57.494Z,99.90
2019-03-12T19:48:28.865Z,99.90
2019-03-12T19:51:00.345Z,99.90
2019-03-12T19:53:31.252Z,99.90
2019-03-12T19:56:02.748Z,99.90
2019-03-12T19:58:35.334Z,99.90
2019-03-12T20:01:09.375Z,99.90
2019-03-12T20:03:42.015Z,99.90
2019-03-12T20:06:13.798Z,99.90
2019-03-12T20:08:47.094Z,99.90
2019-03-12T20:11:44.236Z,99.90
2019-03-12T20:14:56.800Z,99.90
2019-03-12T20:18:07.602Z,99.90
2019-03-12T20:21:08.026Z,99.90
2019-03-12T20:24:11.856Z,99.90
2019-03-12T20:27:30.060Z,99.90
2019-03-12T20:30:43.617Z,99.90
2019-03-12T20:33:50.066Z,99.90
2019-03-12T20:36:56.950Z,99.90
2019-03-12T20:40:06.879Z,99.90
2019-03-12T20:43:20.942Z,99.90
2019-03-12T20:46:30.676Z,99.90
2019-03-12T20:49:51.391Z,99.90
2019-03-12T20:53:15.502Z,99.90
2019-03-12T20:56:43.349Z,99.90
2019-03-12T20:59:50.749Z,99.90
2019-03-12T21:03:03.573Z,99.90
2019-03-12T21:06:37.099Z,99.90
2019-03-12T21:09:53.276Z,99.90
2019-03-12T21:13:03.736Z,99.90
2019-03-12T21:15:59.422Z,99.90
2019-03-12T21:19:17.235Z,99.90
2019-03-12T21:22:38.014Z,99.90
2019-03-12T21:25:31.723Z,99.90
2019-03-12T21:28:29.534Z,99.90
2019-03-12T21:31:02.140Z,99.90
2019-03-12T21:33:33.556Z,99.90
2019-03-12T21:36:08.222Z,99.90
2019-03-12T21:38:41.610Z,99.90
2019-03-12T21:41:13.972Z,99.90
2019-03-12T21:43:46.426Z,99.90
2019-03-12T21:46:17.861Z,99.90
2019-03-12T21:48:51.186Z,99.90
2019-03-12T21:51:23.120Z,99.90
2019-03-12T21:53:54.356Z,99.90
2019-03-12T21:56:26.060Z,99.90
2019-03-12T21:58:56.696Z,99.90
2019-03-12T22:01:28.501Z,99.90
2019-03-12T22:03:59.399Z,99.90
2019-03-12T22:06:29.659Z,99.90
2019-03-12T22:09:00.524Z,99.90
2019-03-12T22:11:31.905Z,99.90
2019-03-12T22:14:02.605Z,99.90
2019-03-12T22:16:33.671Z,99.90
2019-03-12T22:19:04.343Z,99.90
2019-03-12T22:21:52.580Z,99.90
2019-03-12T22:24:22.942Z,99.90
2019-03-12T22:26:53.356Z,99.90
2019-03-12T22:29:25.702Z,99.90
2019-03-12T22:31:56.264Z,99.90
2019-03-12T22:34:29.775Z,99.90
2019-03-12T22:36:58.955Z,99.90
2019-03-12T22:39:29.904Z,99.90
2019-03-12T22:42:00.570Z,99.90
2019-03-12T22:44:30.659Z,99.90
2019-03-12T22:47:01.760Z,99.90
2019-03-12T22:49:32.922Z,99.90
2019-03-12T22:52:03.580Z,99.90
2019-03-12T22:54:34.034Z,99.90
2019-03-12T22:57:04.310Z,99.90
2019-03-12T22:59:35.391Z,99.90
2019-03-12T23:02:06.195Z,99.90
2019-03-12T23:04:36.610Z,99.90
2019-03-12T23:07:06.820Z,99.90
2019-03-12T23:09:38.121Z,99.90
2019-03-12T23:12:09.796Z,99.90
2019-03-12T23:14:40.720Z,99.90
2019-03-12T23:17:11.209Z,99.90
2019-03-12T23:19:42.783Z,99.90
2019-03-12T23:22:13.663Z,99.90
2019-03-12T23:24:44.351Z,99.90
2019-03-12T23:27:15.016Z,99.90
2019-03-12T23:29:46.163Z,99.90
2019-03-12T23:32:17.738Z,99.90
2019-03-12T23:34:48.612Z,99.90
2019-03-12T23:37:20.598Z,99.90
2019-03-12T23:39:51.507Z,99.90
2019-03-12T23:42:22.262Z,99.90
2019-03-12T23:44:52.998Z,99.90
2019-03-12T23:47:23.889Z,99.90
2019-03-12T23:49:54.675Z,99.90
2019-03-12T23:52:25.870Z,99.90
2019-03-12T23:54:56.418Z,99.90
2019-03-12T23:57:27.178Z,99.90
2019-03-12T23:59:57.786Z,99.90
